Palmer, Indiana
Current Conditions -  °F | °C
As of 6:15 AM on Wednesday 28 Jan 2015 (Local Time) from KIGQ Reporting Station
Clear Clear  
Wind Chill: 18°   Ceiling: Unl
Heat Index: 18°   Visibility: 10mi
Dew Point: 15°   Wind: 3mph
Humidity: 87%   Direction: 180°S
Pressure: 30.3"   Gusts: NA
Location:  41.4039°N, 87.3294°W
Report Text: KIGQ 281215Z AUTO 18003KT 10SM CLR M08/M10 A3030 RMK AO2 T10791097
Loading
Personal Weather Stations






























Interactive Weather Map New forecast layout! Learn more

10-Day Weather Forecast

Advertisements
Track Severe Weather on mobile